createdAt,value
2018-02-23T00:01:56.348Z,96852.52
2018-02-23T00:04:24.815Z,96853.28
2018-02-23T00:06:54.830Z,96853.63
2018-02-23T00:09:25.802Z,96856.47
2018-02-23T00:11:54.270Z,96845.58
2018-02-23T00:14:22.613Z,96850.47
2018-02-23T00:16:52.700Z,96851.28
2018-02-23T00:19:23.716Z,96856.98
2018-02-23T00:21:52.086Z,96861.89
2018-02-23T00:24:20.460Z,96866.14
2018-02-23T00:26:50.981Z,96861.03
2018-02-23T00:29:22.764Z,96859.79
2018-02-23T00:31:51.111Z,96864.24
2018-02-23T00:34:19.409Z,96865.03
2018-02-23T00:36:47.906Z,96864.57
2018-02-23T00:39:16.562Z,96864.16
2018-02-23T00:41:47.632Z,96861.59
2018-02-23T00:44:16.014Z,96858.59
2018-02-23T00:46:44.355Z,96860.56
2018-02-23T00:49:12.767Z,96864.23
2018-02-23T00:51:41.113Z,96861.65
2018-02-23T00:54:09.532Z,96858.36
2018-02-23T00:56:38.723Z,96859.97
2018-02-23T00:59:07.922Z,96859.89
2018-02-23T01:01:36.259Z,96857.73
2018-02-23T01:04:04.577Z,96856.41
2018-02-23T01:06:32.927Z,96855.43
2018-02-23T01:09:01.270Z,96853.38
2018-02-23T01:11:29.644Z,96852.44
2018-02-23T01:13:57.978Z,96855.59
2018-02-23T01:16:26.327Z,96850.48
2018-02-23T01:18:54.635Z,96852.78
2018-02-23T01:21:24.628Z,96855.14
2018-02-23T01:23:52.997Z,96856.71
2018-02-23T01:26:21.318Z,96853.20
2018-02-23T01:28:49.680Z,96845.55
2018-02-23T01:31:22.055Z,96850.08
2018-02-23T01:33:52.549Z,96841.37
2018-02-23T01:36:21.100Z,96838.39
2018-02-23T01:38:50.204Z,96840.05
2018-02-23T01:41:18.581Z,96838.09
2018-02-23T01:43:46.923Z,96845.89
2018-02-23T01:46:15.984Z,96837.58
2018-02-23T01:48:44.433Z,96834.25
2018-02-23T01:51:12.761Z,96830.83
2018-02-23T01:53:41.185Z,96824.94
2018-02-23T01:56:09.523Z,96822.42
2018-02-23T01:58:38.620Z,96823.18
2018-02-23T02:01:07.707Z,96818.13
2018-02-23T02:03:36.811Z,96818.40
2018-02-23T02:06:05.201Z,96814.99
2018-02-23T02:08:35.164Z,96817.67
2018-02-23T02:11:05.426Z,96812.30
2018-02-23T02:13:34.701Z,96808.20
2018-02-23T02:16:03.090Z,96809.15
2018-02-23T02:18:31.428Z,96805.56
2018-02-23T02:21:02.432Z,96798.48
2018-02-23T02:23:30.770Z,96794.41
2018-02-23T02:25:59.135Z,96797.02
2018-02-23T02:28:27.436Z,96791.77
2018-02-23T02:30:59.338Z,96789.66
2018-02-23T02:33:27.691Z,96787.80
2018-02-23T02:35:56.245Z,96779.34
2018-02-23T02:38:24.560Z,96783.21
2018-02-23T02:40:52.894Z,96782.48
2018-02-23T02:43:21.248Z,96791.01
2018-02-23T02:45:49.552Z,96787.17
2018-02-23T02:48:20.052Z,96785.84
2018-02-23T02:50:48.470Z,96785.09
2018-02-23T02:53:17.181Z,96789.28
2018-02-23T02:55:45.523Z,96792.11
2018-02-23T02:58:13.908Z,96786.71
2018-02-23T03:00:44.538Z,96784.15
2018-02-23T03:03:13.868Z,96779.85
2018-02-23T03:05:42.231Z,96786.14
2018-02-23T03:08:10.583Z,96786.48
2018-02-23T03:10:39.246Z,96788.59
2018-02-23T03:13:07.552Z,96788.30
2018-02-23T03:15:35.931Z,96786.34
2018-02-23T03:18:04.263Z,96781.39
2018-02-23T03:20:32.592Z,96783.56
2018-02-23T03:23:00.964Z,96782.84
2018-02-23T03:25:29.362Z,96782.78
2018-02-23T03:27:57.838Z,96776.52
2018-02-23T03:30:26.206Z,96775.70
2018-02-23T03:32:54.625Z,96770.66
2018-02-23T03:35:23.717Z,96770.72
2018-02-23T03:37:52.054Z,96768.55
2018-02-23T03:40:20.453Z,96771.52
2018-02-23T03:42:48.812Z,96771.90
2018-02-23T03:45:18.870Z,96767.66
2018-02-23T03:47:50.061Z,96761.97
2018-02-23T03:50:18.511Z,96767.28
2018-02-23T03:52:46.784Z,96769.80
2018-02-23T03:55:16.839Z,96770.31
2018-02-23T03:57:45.226Z,96784.39
2018-02-23T04:00:15.232Z,96776.14
2018-02-23T04:02:44.690Z,96768.31
2018-02-23T04:05:14.014Z,96772.58
2018-02-23T04:07:44.079Z,96771.88
2018-02-23T04:10:12.390Z,96770.64
2018-02-23T04:12:42.644Z,96765.41
2018-02-23T04:15:13.699Z,96771.16
2018-02-23T04:17:46.001Z,96770.80
2018-02-23T04:20:14.377Z,96774.31
2018-02-23T04:22:44.458Z,96771.69
2018-02-23T04:25:12.844Z,96768.83
2018-02-23T04:27:41.215Z,96770.45
2018-02-23T04:30:09.556Z,96773.44
2018-02-23T04:32:37.958Z,96776.87
2018-02-23T04:35:06.314Z,96773.20
2018-02-23T04:37:34.645Z,96775.34
2018-02-23T04:40:04.867Z,96773.64
2018-02-23T04:42:35.557Z,96776.72
2018-02-23T04:45:04.035Z,96781.25
2018-02-23T04:47:34.083Z,96777.73
2018-02-23T04:59:48.317Z,96779.51
2018-02-23T05:02:16.633Z,96779.13
2018-02-23T05:04:44.941Z,96785.70
2018-02-23T05:07:13.381Z,96783.16
2018-02-23T05:09:41.732Z,96788.91
2018-02-23T05:12:12.030Z,96788.53
2018-02-23T05:14:42.789Z,96787.23
2018-02-23T05:17:11.103Z,96788.53
2018-02-23T05:19:39.623Z,96789.25
2018-02-23T05:22:08.041Z,96792.86
2018-02-23T05:24:36.507Z,96793.38
2018-02-23T05:27:04.867Z,96795.02
2018-02-23T05:29:33.301Z,96787.38
2018-02-23T05:32:02.716Z,96797.72
2018-02-23T05:34:31.065Z,96795.09
2018-02-23T05:37:00.389Z,96793.80
2018-02-23T05:39:28.698Z,96795.91
2018-02-23T05:41:57.001Z,96789.24
2018-02-23T05:44:25.411Z,96795.45
2018-02-23T05:46:53.755Z,96795.02
2018-02-23T05:49:22.114Z,96791.29
2018-02-23T05:51:50.515Z,96794.06
2018-02-23T05:54:18.835Z,96786.35
2018-02-23T05:56:47.975Z,96789.70
2018-02-23T05:59:16.369Z,96784.30
2018-02-23T06:01:44.693Z,96786.47
2018-02-23T06:04:13.028Z,96791.45
2018-02-23T06:06:41.325Z,96786.41
2018-02-23T06:09:09.753Z,96791.75
2018-02-23T06:11:38.043Z,96791.31
2018-02-23T06:14:06.373Z,96790.91
2018-02-23T06:16:34.997Z,96795.45
2018-02-23T06:19:03.370Z,96798.30
2018-02-23T06:21:31.725Z,96793.42
2018-02-23T06:24:02.207Z,96793.77
2018-02-23T06:26:30.665Z,96796.34
2018-02-23T06:28:58.997Z,96794.66
2018-02-23T06:31:27.386Z,96800.12
2018-02-23T06:33:55.765Z,96803.06
2018-02-23T06:36:25.828Z,96798.03
2018-02-23T06:38:54.383Z,96804.75
2018-02-23T06:41:24.405Z,96806.14
2018-02-23T06:43:54.708Z,96805.47
2018-02-23T06:46:24.137Z,96801.02
2018-02-23T06:48:52.503Z,96804.56
2018-02-23T06:51:21.017Z,96792.37
2018-02-23T06:53:50.394Z,96798.14
2018-02-23T06:56:18.751Z,96796.31
2018-02-23T06:58:47.099Z,96801.88
2018-02-23T07:01:16.227Z,96806.84
2018-02-23T07:03:44.537Z,96805.50
2018-02-23T07:06:13.711Z,96810.55
2018-02-23T07:08:42.064Z,96818.16
2018-02-23T07:11:10.490Z,96815.41
2018-02-23T07:13:38.751Z,96819.76
2018-02-23T07:16:07.471Z,96807.52
2018-02-23T07:18:35.832Z,96812.41
2018-02-23T07:21:05.980Z,96818.16
2018-02-23T07:23:34.493Z,96816.71
2018-02-23T07:26:02.876Z,96816.35
2018-02-23T07:28:31.271Z,96814.16
2018-02-23T07:30:59.859Z,96808.80
2018-02-23T07:33:28.224Z,96811.09
2018-02-23T07:35:56.514Z,96818.67
2018-02-23T07:38:25.307Z,96803.85
2018-02-23T07:40:55.842Z,96816.70
2018-02-23T07:43:24.888Z,96814.98
2018-02-23T07:45:54.930Z,96822.13
2018-02-23T07:48:23.295Z,96826.30
2018-02-23T07:50:51.796Z,96834.02
2018-02-23T07:53:20.219Z,96833.15
2018-02-23T07:55:48.577Z,96834.61
2018-02-23T07:58:16.868Z,96835.56
2018-02-23T08:00:47.016Z,96838.06
2018-02-23T08:03:18.075Z,96834.02
2018-02-23T08:05:47.562Z,96832.27
2018-02-23T08:08:15.957Z,96835.99
2018-02-23T08:10:44.434Z,96829.38
2018-02-23T08:13:14.594Z,96832.37
2018-02-23T08:15:45.595Z,96832.48
2018-02-23T08:18:14.022Z,96829.78
2018-02-23T08:20:42.459Z,96836.51
2018-02-23T08:23:10.837Z,96842.45
2018-02-23T08:25:39.224Z,96827.84
2018-02-23T08:28:07.599Z,96827.92
2018-02-23T08:30:35.966Z,96831.94
2018-02-23T08:33:04.324Z,96827.92
2018-02-23T08:35:32.746Z,96825.52
2018-02-23T08:38:01.103Z,96815.03
2018-02-23T08:40:29.561Z,96824.91
2018-02-23T08:42:58.625Z,96828.50
2018-02-23T08:45:26.983Z,96829.59
2018-02-23T08:47:55.310Z,96830.48
2018-02-23T08:50:43.584Z,96827.89
2018-02-23T08:53:11.868Z,96829.02
2018-02-23T08:55:40.296Z,96833.91
2018-02-23T09:00:49.078Z,96837.26
2018-02-23T09:03:17.399Z,96846.33
2018-02-23T09:05:47.554Z,96856.92
2018-02-23T09:08:15.849Z,96863.81
2018-02-23T09:10:44.123Z,96861.03
2018-02-23T09:13:12.392Z,96865.41
2018-02-23T09:15:40.623Z,96869.63
2018-02-23T09:18:08.926Z,96871.33
2018-02-23T09:20:37.189Z,96874.27
2018-02-23T09:23:05.464Z,96876.56
2018-02-23T09:25:33.734Z,96881.72
2018-02-23T09:28:02.038Z,96878.13
2018-02-23T09:30:30.260Z,96884.94
2018-02-23T09:32:58.482Z,96871.11
2018-02-23T09:35:26.727Z,96879.67
2018-02-23T09:37:54.991Z,96872.30
2018-02-23T09:40:23.342Z,96873.83
2018-02-23T09:42:51.564Z,96878.91
2018-02-23T09:45:19.836Z,96869.20
2018-02-23T09:47:48.084Z,96865.52
2018-02-23T09:50:16.420Z,96879.22
2018-02-23T09:52:44.643Z,96874.02
2018-02-23T09:55:12.896Z,96864.28
2018-02-23T09:57:41.194Z,96862.83
2018-02-23T10:00:09.464Z,96863.86
2018-02-23T10:02:37.694Z,96865.52
2018-02-23T10:05:05.939Z,96863.95
2018-02-23T10:07:34.196Z,96867.81
2018-02-23T10:10:02.445Z,96868.41
2018-02-23T10:12:31.092Z,96875.98
2018-02-23T10:14:59.392Z,96871.66
2018-02-23T10:17:27.656Z,96875.61
2018-02-23T10:19:55.938Z,96876.78
2018-02-23T10:22:24.191Z,96871.52
2018-02-23T10:24:52.486Z,96864.12
2018-02-23T10:27:20.712Z,96877.16
2018-02-23T10:29:49.038Z,96878.41
2018-02-23T10:32:17.279Z,96880.38
2018-02-23T10:34:45.548Z,96880.60
2018-02-23T10:37:13.894Z,96882.42
2018-02-23T10:39:42.129Z,96878.02
2018-02-23T10:42:10.386Z,96879.94
2018-02-23T10:44:38.615Z,96881.17
2018-02-23T10:47:06.885Z,96872.31
2018-02-23T10:49:35.145Z,96878.02
2018-02-23T10:52:03.428Z,96878.07
2018-02-23T10:54:31.668Z,96872.66
2018-02-23T10:56:59.956Z,96878.50
2018-02-23T10:59:28.213Z,96865.23
2018-02-23T11:01:56.469Z,96869.77
2018-02-23T11:04:24.724Z,96865.98
2018-02-23T11:06:52.952Z,96866.30
2018-02-23T11:09:21.237Z,96866.27
2018-02-23T11:11:49.489Z,96860.25
2018-02-23T11:14:17.762Z,96865.98
2018-02-23T11:16:46.028Z,96862.25
2018-02-23T11:19:14.262Z,96872.60
2018-02-23T11:21:42.816Z,96868.63
2018-02-23T11:24:11.162Z,96865.71
2018-02-23T11:26:39.454Z,96850.63
2018-02-23T11:29:07.702Z,96851.83
2018-02-23T11:31:36.252Z,96854.48
2018-02-23T11:34:04.503Z,96840.41
2018-02-23T11:36:32.770Z,96844.09
2018-02-23T11:39:01.010Z,96839.45
2018-02-23T11:41:29.308Z,96838.92
2018-02-23T11:43:57.624Z,96845.23
2018-02-23T11:46:26.140Z,96847.09
2018-02-23T11:48:54.404Z,96836.59
2018-02-23T11:51:22.657Z,96832.94
2018-02-23T11:53:50.936Z,96830.08
2018-02-23T11:56:19.171Z,96828.59
2018-02-23T11:58:47.441Z,96829.59
2018-02-23T12:01:15.674Z,96822.30
2018-02-23T12:03:43.954Z,96826.32
2018-02-23T12:06:12.169Z,96829.87
2018-02-23T12:08:41.019Z,96822.16
2018-02-23T12:11:09.255Z,96824.75
2018-02-23T12:13:37.504Z,96826.88
2018-02-23T12:16:05.747Z,96831.73
2018-02-23T12:18:33.982Z,96834.62
2018-02-23T12:21:02.271Z,96843.31
2018-02-23T12:23:30.514Z,96841.10
2018-02-23T12:25:58.765Z,96846.53
2018-02-23T12:28:27.006Z,96841.86
2018-02-23T12:30:55.269Z,96838.55
2018-02-23T12:33:23.552Z,96845.20
2018-02-23T12:35:52.243Z,96844.72
2018-02-23T12:38:20.495Z,96855.77
2018-02-23T12:40:48.782Z,96863.79
2018-02-23T12:43:17.039Z,96857.88
2018-02-23T12:45:45.273Z,96851.26
2018-02-23T12:48:13.639Z,96849.39
2018-02-23T12:50:41.911Z,96839.03
2018-02-23T12:53:10.224Z,96841.70
2018-02-23T12:55:38.969Z,96840.09
2018-02-23T12:58:07.213Z,96836.17
2018-02-23T13:00:35.693Z,96832.80
2018-02-23T13:03:03.954Z,96833.82
2018-02-23T13:05:32.197Z,96826.69
2018-02-23T13:08:00.445Z,96822.20
2018-02-23T13:10:28.715Z,96824.45
2018-02-23T13:12:56.959Z,96813.77
2018-02-23T13:15:25.190Z,96817.22
2018-02-23T13:17:53.439Z,96814.84
2018-02-23T13:20:21.708Z,96816.69
2018-02-23T13:22:49.983Z,96820.38
2018-02-23T13:25:18.195Z,96818.31
2018-02-23T13:27:52.104Z,96818.20
2018-02-23T13:30:20.338Z,96822.31
2018-02-23T13:32:48.657Z,96829.61
2018-02-23T13:35:16.891Z,96832.34
2018-02-23T13:37:45.177Z,96840.13
2018-02-23T13:40:13.432Z,96844.37
2018-02-23T13:42:41.678Z,96840.30
2018-02-23T13:45:09.933Z,96839.12
2018-02-23T13:47:38.171Z,96823.44
2018-02-23T13:50:06.482Z,96828.86
2018-02-23T13:52:34.745Z,96821.00
2018-02-23T13:55:03.054Z,96819.55
2018-02-23T13:57:31.360Z,96819.47
2018-02-23T13:59:59.613Z,96820.34
2018-02-23T14:02:27.893Z,96820.12
2018-02-23T14:04:56.118Z,96827.39
2018-02-23T14:07:29.911Z,96831.59
2018-02-23T14:09:58.107Z,96828.32
2018-02-23T14:12:26.381Z,96831.66
2018-02-23T14:14:54.632Z,96838.06
2018-02-23T14:17:22.935Z,96838.50
2018-02-23T14:19:51.196Z,96836.13
2018-02-23T14:22:19.595Z,96837.05
2018-02-23T14:24:47.856Z,96844.83
2018-02-23T14:27:16.146Z,96838.63
2018-02-23T14:29:44.435Z,96839.19
2018-02-23T14:32:12.673Z,96835.33
2018-02-23T14:34:40.904Z,96830.89
2018-02-23T14:37:09.968Z,96825.08
2018-02-23T14:39:38.246Z,96825.40
2018-02-23T14:42:06.502Z,96825.77
2018-02-23T14:44:34.739Z,96819.41
2018-02-23T14:47:03.224Z,96814.52
2018-02-23T14:49:31.452Z,96817.13
2018-02-23T14:51:59.762Z,96817.80
2018-02-23T14:54:28.012Z,96817.03
2018-02-23T14:56:56.346Z,96810.95
2018-02-23T14:59:24.582Z,96816.88
2018-02-23T15:01:52.830Z,96816.39
2018-02-23T15:04:21.081Z,96817.53
2018-02-23T15:06:49.365Z,96815.99
2018-02-23T15:09:17.682Z,96812.08
2018-02-23T15:11:45.946Z,96819.78
2018-02-23T15:14:14.219Z,96819.91
2018-02-23T15:16:42.463Z,96807.85
2018-02-23T15:19:10.748Z,96814.73
2018-02-23T15:21:38.984Z,96810.16
2018-02-23T15:24:07.311Z,96801.55
2018-02-23T15:26:35.546Z,96804.16
2018-02-23T15:29:03.780Z,96801.16
2018-02-23T15:31:44.872Z,96803.18
2018-02-23T15:34:13.266Z,96801.31
2018-02-23T15:36:41.522Z,96800.84
2018-02-23T15:39:09.755Z,96796.91
2018-02-23T15:41:38.034Z,96801.61
2018-02-23T15:44:06.298Z,96802.38
2018-02-23T15:46:34.666Z,96796.13
2018-02-23T15:49:18.862Z,96801.06
2018-02-23T15:51:50.724Z,96799.28
2018-02-23T15:54:18.966Z,96795.52
2018-02-23T15:56:47.258Z,96795.45
2018-02-23T15:59:16.720Z,96794.22
2018-02-23T16:01:44.978Z,96797.53
2018-02-23T16:04:13.225Z,96797.15
2018-02-23T16:06:41.466Z,96795.73
2018-02-23T16:09:09.735Z,96806.88
2018-02-23T16:11:37.942Z,96808.53
2018-02-23T16:14:06.218Z,96801.89
2018-02-23T16:16:34.512Z,96798.16
2018-02-23T16:19:02.800Z,96804.84
2018-02-23T16:21:31.022Z,96808.09
2018-02-23T16:23:59.257Z,96810.15
2018-02-23T16:26:27.536Z,96818.88
2018-02-23T16:28:56.027Z,96817.19
2018-02-23T16:31:24.365Z,96825.06
2018-02-23T16:33:52.626Z,96820.44
2018-02-23T16:36:20.926Z,96817.90
2018-02-23T16:38:49.197Z,96825.38
2018-02-23T16:41:17.461Z,96822.51
2018-02-23T16:43:45.714Z,96822.87
2018-02-23T16:46:14.009Z,96831.50
2018-02-23T16:48:42.359Z,96834.83
2018-02-23T16:51:10.639Z,96846.81
2018-02-23T16:53:38.951Z,96844.30
2018-02-23T16:56:07.190Z,96839.70
2018-02-23T16:58:35.456Z,96840.06
2018-02-23T17:01:03.700Z,96852.55
2018-02-23T17:03:32.023Z,96842.49
2018-02-23T17:06:00.354Z,96849.94
2018-02-23T17:08:28.604Z,96847.82
2018-02-23T17:10:56.890Z,96855.67
2018-02-23T17:13:25.122Z,96852.75
2018-02-23T17:15:53.383Z,96857.24
2018-02-23T17:18:21.674Z,96860.11
2018-02-23T17:20:49.925Z,96860.92
2018-02-23T17:23:18.187Z,96867.96
2018-02-23T17:25:46.442Z,96872.52
2018-02-23T17:28:14.672Z,96869.16
2018-02-23T17:30:42.898Z,96880.77
2018-02-23T17:33:11.245Z,96875.58
2018-02-23T17:35:39.508Z,96888.63
2018-02-23T17:38:07.769Z,96885.50
2018-02-23T17:40:36.103Z,96889.89
2018-02-23T17:43:04.386Z,96893.88
2018-02-23T17:45:32.645Z,96893.38
2018-02-23T17:48:00.932Z,96894.56
2018-02-23T17:50:29.203Z,96894.42
2018-02-23T17:52:57.464Z,96895.11
2018-02-23T17:55:25.937Z,96895.85
2018-02-23T17:57:54.265Z,96886.95
2018-02-23T18:00:22.569Z,96884.75
2018-02-23T18:02:50.925Z,96883.32
2018-02-23T18:05:19.624Z,96880.76
2018-02-23T18:07:47.900Z,96886.05
2018-02-23T18:10:16.186Z,96888.03
2018-02-23T18:12:44.465Z,96892.85
2018-02-23T18:15:12.717Z,96896.91
2018-02-23T18:17:41.033Z,96903.95
2018-02-23T18:20:09.337Z,96903.50
2018-02-23T18:22:37.584Z,96905.92
2018-02-23T18:25:05.819Z,96905.44
2018-02-23T18:27:34.106Z,96894.22
2018-02-23T18:30:02.331Z,96902.45
2018-02-23T18:32:30.597Z,96901.25
2018-02-23T18:34:58.881Z,96897.88
2018-02-23T18:37:27.155Z,96897.06
2018-02-23T18:39:55.440Z,96895.69
2018-02-23T18:42:23.677Z,96895.64
2018-02-23T18:44:51.990Z,96891.90
2018-02-23T18:47:20.268Z,96894.76
2018-02-23T18:49:48.514Z,96895.19
2018-02-23T18:52:16.779Z,96893.88
2018-02-23T18:54:45.025Z,96891.33
2018-02-23T18:57:13.351Z,96887.97
2018-02-23T18:59:41.593Z,96892.52
2018-02-23T19:02:09.895Z,96888.41
2018-02-23T19:04:38.148Z,96880.85
2018-02-23T19:07:06.450Z,96881.45
2018-02-23T19:09:34.736Z,96889.89
2018-02-23T19:12:03.003Z,96892.38
2018-02-23T19:14:31.270Z,96898.91
2018-02-23T19:16:59.573Z,96900.08
2018-02-23T19:19:27.850Z,96900.16
2018-02-23T19:21:56.144Z,96903.84
2018-02-23T19:24:24.424Z,96902.84
2018-02-23T19:26:52.686Z,96896.81
2018-02-23T19:29:20.975Z,96904.42
2018-02-23T19:31:49.255Z,96896.12
2018-02-23T19:34:17.606Z,96893.63
2018-02-23T19:36:46.008Z,96900.63
2018-02-23T19:39:14.272Z,96910.08
2018-02-23T19:41:42.595Z,96912.09
2018-02-23T19:44:10.872Z,96913.27
2018-02-23T19:46:39.190Z,96926.02
2018-02-23T19:49:07.536Z,96931.31
2018-02-23T19:51:35.918Z,96940.05
2018-02-23T19:54:04.269Z,96938.74
2018-02-23T19:56:32.588Z,96949.58
2018-02-23T19:59:01.256Z,96945.77
2018-02-23T20:01:29.758Z,96944.85
2018-02-23T20:03:58.071Z,96953.17
2018-02-23T20:06:26.640Z,96957.67
2018-02-23T20:08:54.974Z,96954.73
2018-02-23T20:11:23.436Z,96949.48
2018-02-23T20:13:51.828Z,96944.89
2018-02-23T20:16:20.160Z,96942.25
2018-02-23T20:18:48.549Z,96946.05
2018-02-23T20:21:16.872Z,96945.54
2018-02-23T20:23:45.202Z,96943.05
2018-02-23T20:26:13.627Z,96942.88
2018-02-23T20:28:42.011Z,96942.47
2018-02-23T20:31:10.396Z,96943.97
2018-02-23T20:33:38.705Z,96947.59
2018-02-23T20:36:06.975Z,96938.66
2018-02-23T20:38:35.341Z,96946.63
2018-02-23T20:41:03.689Z,96954.48
2018-02-23T20:43:32.026Z,96949.05
2018-02-23T20:46:00.303Z,96946.98
2018-02-23T20:48:28.669Z,96951.97
2018-02-23T20:50:56.979Z,96951.53
2018-02-23T20:53:25.321Z,96951.86
2018-02-23T20:55:54.674Z,96950.16
2018-02-23T20:58:22.937Z,96950.95
2018-02-23T21:00:51.263Z,96943.55
2018-02-23T21:03:19.528Z,96944.24
2018-02-23T21:05:47.929Z,96937.56
2018-02-23T21:08:16.226Z,96976.18
2018-02-23T21:10:44.532Z,96937.94
2018-02-23T21:13:12.821Z,96930.46
2018-02-23T21:15:41.131Z,96930.77
2018-02-23T21:18:09.446Z,96929.51
2018-02-23T21:20:37.685Z,96928.64
2018-02-23T21:23:05.948Z,96940.30
2018-02-23T21:25:34.192Z,96932.76
2018-02-23T21:28:02.500Z,96925.28
2018-02-23T21:30:30.760Z,96929.40
2018-02-23T21:32:59.034Z,96929.33
2018-02-23T21:35:27.325Z,96932.61
2018-02-23T21:37:55.658Z,96932.98
2018-02-23T21:40:23.922Z,96931.23
2018-02-23T21:42:52.174Z,96930.37
2018-02-23T21:45:20.538Z,96931.72
2018-02-23T21:47:48.827Z,96933.37
2018-02-23T21:50:17.118Z,96938.77
2018-02-23T21:52:45.372Z,96938.28
2018-02-23T21:55:13.657Z,96936.91
2018-02-23T21:57:41.948Z,96937.70
2018-02-23T22:00:10.215Z,96940.98
2018-02-23T22:02:38.496Z,96942.91
2018-02-23T22:05:06.746Z,96937.37
2018-02-23T22:07:35.035Z,96947.18
2018-02-23T22:10:03.300Z,96937.70
2018-02-23T22:12:31.597Z,96938.09
2018-02-23T22:14:59.885Z,96946.73
2018-02-23T22:17:28.168Z,96951.30
2018-02-23T22:19:56.440Z,96946.31
2018-02-23T22:22:24.717Z,96951.22
2018-02-23T22:24:52.992Z,96954.00
2018-02-23T22:27:21.399Z,96958.11
2018-02-23T22:29:49.714Z,96955.55
2018-02-23T22:32:17.976Z,96950.13
2018-02-23T22:34:46.284Z,96947.59
2018-02-23T22:37:14.614Z,96951.25
2018-02-23T22:39:42.911Z,96956.20
2018-02-23T22:42:11.141Z,96958.56
2018-02-23T22:44:39.392Z,96968.09
2018-02-23T22:47:07.670Z,96965.58
2018-02-23T22:49:35.882Z,96968.09
2018-02-23T22:52:04.135Z,96974.30
2018-02-23T22:54:32.353Z,96966.83
2018-02-23T22:57:00.646Z,96967.66
2018-02-23T22:59:28.944Z,96966.85
2018-02-23T23:01:57.209Z,96959.61
2018-02-23T23:04:25.501Z,96960.72
2018-02-23T23:06:53.749Z,96962.19
2018-02-23T23:09:22.014Z,96962.19
2018-02-23T23:11:50.278Z,96966.59
2018-02-23T23:14:18.601Z,96967.11
2018-02-23T23:16:46.851Z,96965.26
2018-02-23T23:19:15.097Z,96966.09
2018-02-23T23:21:43.375Z,96965.94
2018-02-23T23:24:11.622Z,96976.93
2018-02-23T23:26:39.910Z,96975.98
2018-02-23T23:29:08.198Z,96970.98
2018-02-23T23:31:36.491Z,96965.06
2018-02-23T23:34:04.783Z,96971.28
2018-02-23T23:36:33.051Z,96980.02
2018-02-23T23:39:01.362Z,96973.59
2018-02-23T23:41:29.637Z,96972.23
2018-02-23T23:43:57.912Z,96974.03
2018-02-23T23:46:26.175Z,96981.70
2018-02-23T23:48:54.836Z,96980.45
2018-02-23T23:51:23.090Z,96981.83
2018-02-23T23:53:51.347Z,96979.05
2018-02-23T23:56:19.621Z,96982.58
2018-02-23T23:58:47.849Z,96984.05
